sensor_id;sensor_type;location;lat;lon;timestamp;P1;durP1;ratioP1;P2;durP2;ratioP2
11078;SDS011;5592;49.234;7.268;2024-03-07T00:00:08;14.00;;;9.37;;
11078;SDS011;5592;49.234;7.268;2024-03-07T00:05:09;23.10;;;12.70;;
11078;SDS011;5592;49.234;7.268;2024-03-07T00:07:36;27.00;;;15.43;;
11078;SDS011;5592;49.234;7.268;2024-03-07T00:10:02;36.90;;;17.70;;
11078;SDS011;5592;49.234;7.268;2024-03-07T00:12:29;48.77;;;24.90;;
11078;SDS011;5592;49.234;7.268;2024-03-07T00:14:56;46.20;;;23.90;;
11078;SDS011;5592;49.234;7.268;2024-03-07T00:17:21;42.77;;;21.07;;
11078;SDS011;5592;49.234;7.268;2024-03-07T00:19:48;38.50;;;21.53;;
11078;SDS011;5592;49.234;7.268;2024-03-07T00:22:13;52.33;;;25.53;;
11078;SDS011;5592;49.234;7.268;2024-03-07T00:24:39;55.73;;;27.37;;
11078;SDS011;5592;49.234;7.268;2024-03-07T00:27:05;50.47;;;25.97;;
11078;SDS011;5592;49.234;7.268;2024-03-07T00:29:32;55.93;;;31.10;;
11078;SDS011;5592;49.234;7.268;2024-03-07T00:32:00;55.27;;;29.93;;
11078;SDS011;5592;49.234;7.268;2024-03-07T00:34:26;65.47;;;30.90;;
11078;SDS011;5592;49.234;7.268;2024-03-07T00:36:51;59.30;;;30.20;;
11078;SDS011;5592;49.234;7.268;2024-03-07T00:39:17;59.80;;;32.10;;
11078;SDS011;5592;49.234;7.268;2024-03-07T00:41:44;53.77;;;28.87;;
11078;SDS011;5592;49.234;7.268;2024-03-07T00:44:10;55.73;;;31.27;;
11078;SDS011;5592;49.234;7.268;2024-03-07T00:46:36;54.63;;;29.10;;
11078;SDS011;5592;49.234;7.268;2024-03-07T00:49:02;60.47;;;30.50;;
11078;SDS011;5592;49.234;7.268;2024-03-07T00:51:27;58.63;;;29.70;;
11078;SDS011;5592;49.234;7.268;2024-03-07T00:53:53;59.10;;;31.30;;
11078;SDS011;5592;49.234;7.268;2024-03-07T00:56:19;51.83;;;29.10;;
11078;SDS011;5592;49.234;7.268;2024-03-07T00:58:46;52.47;;;29.60;;
11078;SDS011;5592;49.234;7.268;2024-03-07T01:01:15;52.53;;;29.37;;
11078;SDS011;5592;49.234;7.268;2024-03-07T01:03:42;55.43;;;27.77;;
11078;SDS011;5592;49.234;7.268;2024-03-07T01:06:08;64.97;;;31.80;;
11078;SDS011;5592;49.234;7.268;2024-03-07T01:08:34;55.60;;;28.93;;
11078;SDS011;5592;49.234;7.268;2024-03-07T01:11:01;56.20;;;30.00;;
11078;SDS011;5592;49.234;7.268;2024-03-07T01:13:34;55.30;;;30.40;;
11078;SDS011;5592;49.234;7.268;2024-03-07T01:16:06;59.13;;;31.50;;
11078;SDS011;5592;49.234;7.268;2024-03-07T01:18:31;55.07;;;30.13;;
11078;SDS011;5592;49.234;7.268;2024-03-07T01:21:00;62.33;;;31.90;;
11078;SDS011;5592;49.234;7.268;2024-03-07T01:23:27;56.47;;;31.47;;
11078;SDS011;5592;49.234;7.268;2024-03-07T01:25:55;56.13;;;31.47;;
11078;SDS011;5592;49.234;7.268;2024-03-07T01:28:22;59.80;;;32.37;;
11078;SDS011;5592;49.234;7.268;2024-03-07T01:30:48;53.03;;;29.73;;
11078;SDS011;5592;49.234;7.268;2024-03-07T01:33:15;67.97;;;32.90;;
11078;SDS011;5592;49.234;7.268;2024-03-07T01:35:41;70.90;;;31.57;;
11078;SDS011;5592;49.234;7.268;2024-03-07T01:38:06;70.50;;;34.90;;
11078;SDS011;5592;49.234;7.268;2024-03-07T01:40:33;63.43;;;33.07;;
11078;SDS011;5592;49.234;7.268;2024-03-07T01:43:00;58.77;;;32.30;;
11078;SDS011;5592;49.234;7.268;2024-03-07T01:45:26;61.70;;;30.17;;
11078;SDS011;5592;49.234;7.268;2024-03-07T01:47:52;55.90;;;31.40;;
11078;SDS011;5592;49.234;7.268;2024-03-07T01:50:18;57.13;;;31.87;;
11078;SDS011;5592;49.234;7.268;2024-03-07T01:52:43;53.37;;;29.33;;
11078;SDS011;5592;49.234;7.268;2024-03-07T01:55:10;57.40;;;30.40;;
11078;SDS011;5592;49.234;7.268;2024-03-07T01:57:38;51.97;;;27.60;;
11078;SDS011;5592;49.234;7.268;2024-03-07T02:00:04;58.60;;;31.00;;
11078;SDS011;5592;49.234;7.268;2024-03-07T02:02:31;63.50;;;33.50;;
11078;SDS011;5592;49.234;7.268;2024-03-07T02:04:57;51.23;;;28.73;;
11078;SDS011;5592;49.234;7.268;2024-03-07T02:07:23;55.17;;;28.70;;
11078;SDS011;5592;49.234;7.268;2024-03-07T02:09:48;54.10;;;31.50;;
11078;SDS011;5592;49.234;7.268;2024-03-07T02:12:14;46.90;;;27.17;;
11078;SDS011;5592;49.234;7.268;2024-03-07T02:14:40;52.60;;;27.27;;
11078;SDS011;5592;49.234;7.268;2024-03-07T02:17:07;59.80;;;29.50;;
11078;SDS011;5592;49.234;7.268;2024-03-07T02:19:32;58.67;;;30.57;;
11078;SDS011;5592;49.234;7.268;2024-03-07T02:21:58;67.30;;;34.60;;
11078;SDS011;5592;49.234;7.268;2024-03-07T02:24:24;60.73;;;33.00;;
11078;SDS011;5592;49.234;7.268;2024-03-07T02:26:50;58.87;;;31.37;;
11078;SDS011;5592;49.234;7.268;2024-03-07T02:29:15;55.70;;;31.43;;
11078;SDS011;5592;49.234;7.268;2024-03-07T02:31:41;53.83;;;29.63;;
11078;SDS011;5592;49.234;7.268;2024-03-07T02:34:06;61.73;;;32.47;;
11078;SDS011;5592;49.234;7.268;2024-03-07T02:36:35;70.77;;;31.83;;
11078;SDS011;5592;49.234;7.268;2024-03-07T02:39:01;60.40;;;30.67;;
11078;SDS011;5592;49.234;7.268;2024-03-07T02:41:27;58.80;;;29.10;;
11078;SDS011;5592;49.234;7.268;2024-03-07T02:43:52;59.47;;;28.33;;
11078;SDS011;5592;49.234;7.268;2024-03-07T02:46:18;55.50;;;28.73;;
11078;SDS011;5592;49.234;7.268;2024-03-07T02:48:44;58.07;;;29.33;;
11078;SDS011;5592;49.234;7.268;2024-03-07T02:51:10;57.17;;;29.97;;
11078;SDS011;5592;49.234;7.268;2024-03-07T02:53:36;55.07;;;28.30;;
11078;SDS011;5592;49.234;7.268;2024-03-07T02:56:03;51.10;;;26.27;;
11078;SDS011;5592;49.234;7.268;2024-03-07T02:58:32;58.87;;;29.10;;
11078;SDS011;5592;49.234;7.268;2024-03-07T03:00:58;57.03;;;28.10;;
11078;SDS011;5592;49.234;7.268;2024-03-07T03:03:25;58.67;;;29.20;;
11078;SDS011;5592;49.234;7.268;2024-03-07T03:05:51;63.37;;;30.40;;
11078;SDS011;5592;49.234;7.268;2024-03-07T03:08:17;62.33;;;31.60;;
11078;SDS011;5592;49.234;7.268;2024-03-07T03:10:42;69.53;;;33.30;;
11078;SDS011;5592;49.234;7.268;2024-03-07T03:13:09;58.20;;;26.67;;
11078;SDS011;5592;49.234;7.268;2024-03-07T03:15:35;53.97;;;28.87;;
11078;SDS011;5592;49.234;7.268;2024-03-07T03:18:02;56.70;;;29.50;;
11078;SDS011;5592;49.234;7.268;2024-03-07T03:20:28;63.33;;;31.23;;
11078;SDS011;5592;49.234;7.268;2024-03-07T03:23:03;64.70;;;30.07;;
11078;SDS011;5592;49.234;7.268;2024-03-07T03:25:30;58.70;;;30.20;;
11078;SDS011;5592;49.234;7.268;2024-03-07T03:28:00;63.33;;;30.40;;
11078;SDS011;5592;49.234;7.268;2024-03-07T03:30:26;65.73;;;29.60;;
11078;SDS011;5592;49.234;7.268;2024-03-07T03:32:52;63.10;;;29.90;;
11078;SDS011;5592;49.234;7.268;2024-03-07T03:35:17;55.17;;;26.77;;
11078;SDS011;5592;49.234;7.268;2024-03-07T03:37:43;68.03;;;30.70;;
11078;SDS011;5592;49.234;7.268;2024-03-07T03:40:09;62.50;;;29.33;;
11078;SDS011;5592;49.234;7.268;2024-03-07T03:42:39;61.60;;;27.67;;
11078;SDS011;5592;49.234;7.268;2024-03-07T03:45:06;71.83;;;31.57;;
11078;SDS011;5592;49.234;7.268;2024-03-07T03:47:36;68.60;;;32.87;;
11078;SDS011;5592;49.234;7.268;2024-03-07T03:50:06;66.43;;;31.60;;
11078;SDS011;5592;49.234;7.268;2024-03-07T03:52:33;69.07;;;32.07;;
11078;SDS011;5592;49.234;7.268;2024-03-07T03:55:00;74.27;;;31.53;;
11078;SDS011;5592;49.234;7.268;2024-03-07T03:57:27;61.07;;;27.53;;
11078;SDS011;5592;49.234;7.268;2024-03-07T03:59:53;66.27;;;31.47;;
11078;SDS011;5592;49.234;7.268;2024-03-07T04:02:19;60.97;;;30.70;;
11078;SDS011;5592;49.234;7.268;2024-03-07T04:04:46;66.60;;;30.87;;
11078;SDS011;5592;49.234;7.268;2024-03-07T04:07:13;61.30;;;30.50;;
11078;SDS011;5592;49.234;7.268;2024-03-07T04:09:40;71.70;;;33.00;;
11078;SDS011;5592;49.234;7.268;2024-03-07T04:12:07;63.03;;;30.20;;
11078;SDS011;5592;49.234;7.268;2024-03-07T04:14:35;75.30;;;32.97;;
11078;SDS011;5592;49.234;7.268;2024-03-07T04:17:02;65.80;;;29.40;;
11078;SDS011;5592;49.234;7.268;2024-03-07T04:19:28;69.53;;;30.37;;
11078;SDS011;5592;49.234;7.268;2024-03-07T04:21:55;76.27;;;31.60;;
11078;SDS011;5592;49.234;7.268;2024-03-07T04:24:21;68.80;;;30.30;;
11078;SDS011;5592;49.234;7.268;2024-03-07T04:26:47;68.87;;;31.27;;
11078;SDS011;5592;49.234;7.268;2024-03-07T04:29:12;65.80;;;31.17;;
11078;SDS011;5592;49.234;7.268;2024-03-07T04:31:38;66.10;;;31.40;;
11078;SDS011;5592;49.234;7.268;2024-03-07T04:34:03;67.70;;;30.43;;
11078;SDS011;5592;49.234;7.268;2024-03-07T04:36:29;63.13;;;31.57;;
11078;SDS011;5592;49.234;7.268;2024-03-07T04:38:57;66.97;;;29.10;;
11078;SDS011;5592;49.234;7.268;2024-03-07T04:41:23;72.50;;;32.60;;
11078;SDS011;5592;49.234;7.268;2024-03-07T04:43:49;71.17;;;33.33;;
11078;SDS011;5592;49.234;7.268;2024-03-07T04:46:15;68.90;;;32.13;;
11078;SDS011;5592;49.234;7.268;2024-03-07T04:48:42;74.17;;;35.90;;
11078;SDS011;5592;49.234;7.268;2024-03-07T04:51:07;69.30;;;31.80;;
11078;SDS011;5592;49.234;7.268;2024-03-07T04:53:33;65.60;;;31.80;;
11078;SDS011;5592;49.234;7.268;2024-03-07T04:56:02;63.27;;;32.47;;
11078;SDS011;5592;49.234;7.268;2024-03-07T04:58:27;66.07;;;30.60;;
11078;SDS011;5592;49.234;7.268;2024-03-07T05:00:53;68.50;;;29.90;;
11078;SDS011;5592;49.234;7.268;2024-03-07T05:03:19;66.17;;;32.33;;
11078;SDS011;5592;49.234;7.268;2024-03-07T05:05:44;66.77;;;30.80;;
11078;SDS011;5592;49.234;7.268;2024-03-07T05:08:10;59.63;;;29.10;;
11078;SDS011;5592;49.234;7.268;2024-03-07T05:10:37;59.20;;;30.87;;
11078;SDS011;5592;49.234;7.268;2024-03-07T05:13:02;62.60;;;30.87;;
11078;SDS011;5592;49.234;7.268;2024-03-07T05:15:28;63.13;;;31.20;;
11078;SDS011;5592;49.234;7.268;2024-03-07T05:17:53;64.57;;;32.23;;
11078;SDS011;5592;49.234;7.268;2024-03-07T05:20:21;63.60;;;30.43;;
11078;SDS011;5592;49.234;7.268;2024-03-07T05:22:46;58.27;;;28.93;;
11078;SDS011;5592;49.234;7.268;2024-03-07T05:25:15;55.47;;;29.80;;
11078;SDS011;5592;49.234;7.268;2024-03-07T05:27:41;64.93;;;30.10;;
11078;SDS011;5592;49.234;7.268;2024-03-07T05:30:07;62.00;;;28.80;;
11078;SDS011;5592;49.234;7.268;2024-03-07T05:32:36;59.23;;;30.03;;
11078;SDS011;5592;49.234;7.268;2024-03-07T05:35:02;58.37;;;28.70;;
11078;SDS011;5592;49.234;7.268;2024-03-07T05:37:28;58.20;;;29.30;;
11078;SDS011;5592;49.234;7.268;2024-03-07T05:39:54;67.47;;;29.30;;
11078;SDS011;5592;49.234;7.268;2024-03-07T05:42:19;67.20;;;31.33;;
11078;SDS011;5592;49.234;7.268;2024-03-07T05:44:45;66.33;;;32.40;;
11078;SDS011;5592;49.234;7.268;2024-03-07T05:47:11;59.40;;;29.80;;
11078;SDS011;5592;49.234;7.268;2024-03-07T05:49:38;71.30;;;33.80;;
11078;SDS011;5592;49.234;7.268;2024-03-07T05:52:04;64.33;;;31.73;;
11078;SDS011;5592;49.234;7.268;2024-03-07T05:54:33;66.53;;;30.50;;
11078;SDS011;5592;49.234;7.268;2024-03-07T05:56:59;67.83;;;30.57;;
11078;SDS011;5592;49.234;7.268;2024-03-07T05:59:25;60.43;;;30.10;;
11078;SDS011;5592;49.234;7.268;2024-03-07T06:01:53;64.77;;;31.53;;
11078;SDS011;5592;49.234;7.268;2024-03-07T06:04:19;72.17;;;33.50;;
11078;SDS011;5592;49.234;7.268;2024-03-07T06:06:45;75.67;;;29.77;;
11078;SDS011;5592;49.234;7.268;2024-03-07T06:09:12;67.83;;;31.80;;
11078;SDS011;5592;49.234;7.268;2024-03-07T06:11:39;68.30;;;30.67;;
11078;SDS011;5592;49.234;7.268;2024-03-07T06:14:08;77.30;;;32.90;;
11078;SDS011;5592;49.234;7.268;2024-03-07T06:16:37;61.00;;;29.50;;
11078;SDS011;5592;49.234;7.268;2024-03-07T06:19:03;75.40;;;33.23;;
11078;SDS011;5592;49.234;7.268;2024-03-07T06:21:34;77.17;;;32.77;;
11078;SDS011;5592;49.234;7.268;2024-03-07T06:24:02;85.37;;;33.83;;
11078;SDS011;5592;49.234;7.268;2024-03-07T06:26:32;86.53;;;36.27;;
11078;SDS011;5592;49.234;7.268;2024-03-07T06:29:17;69.83;;;30.33;;
11078;SDS011;5592;49.234;7.268;2024-03-07T06:31:43;80.13;;;31.40;;
11078;SDS011;5592;49.234;7.268;2024-03-07T06:34:12;75.77;;;32.10;;
11078;SDS011;5592;49.234;7.268;2024-03-07T06:36:38;75.00;;;31.40;;
11078;SDS011;5592;49.234;7.268;2024-03-07T06:39:05;81.70;;;35.80;;
11078;SDS011;5592;49.234;7.268;2024-03-07T06:41:34;81.60;;;35.17;;
11078;SDS011;5592;49.234;7.268;2024-03-07T06:44:00;84.60;;;36.10;;
11078;SDS011;5592;49.234;7.268;2024-03-07T06:46:26;75.13;;;36.03;;
11078;SDS011;5592;49.234;7.268;2024-03-07T06:48:52;72.23;;;35.00;;
11078;SDS011;5592;49.234;7.268;2024-03-07T06:51:17;68.03;;;33.80;;
11078;SDS011;5592;49.234;7.268;2024-03-07T06:53:43;73.13;;;35.23;;
11078;SDS011;5592;49.234;7.268;2024-03-07T06:56:11;55.57;;;31.00;;
11078;SDS011;5592;49.234;7.268;2024-03-07T06:58:37;58.03;;;30.37;;
11078;SDS011;5592;49.234;7.268;2024-03-07T07:01:08;49.20;;;29.80;;
11078;SDS011;5592;49.234;7.268;2024-03-07T07:03:40;42.50;;;27.53;;
11078;SDS011;5592;49.234;7.268;2024-03-07T07:06:08;44.03;;;26.13;;
11078;SDS011;5592;49.234;7.268;2024-03-07T07:08:36;39.43;;;26.03;;
11078;SDS011;5592;49.234;7.268;2024-03-07T07:11:02;46.33;;;25.93;;
11078;SDS011;5592;49.234;7.268;2024-03-07T07:13:28;38.53;;;25.10;;
11078;SDS011;5592;49.234;7.268;2024-03-07T07:15:54;35.30;;;24.20;;
11078;SDS011;5592;49.234;7.268;2024-03-07T07:18:20;32.33;;;22.77;;
11078;SDS011;5592;49.234;7.268;2024-03-07T07:20:50;40.10;;;23.50;;
11078;SDS011;5592;49.234;7.268;2024-03-07T07:23:18;31.77;;;23.37;;
11078;SDS011;5592;49.234;7.268;2024-03-07T07:25:45;35.60;;;23.80;;
11078;SDS011;5592;49.234;7.268;2024-03-07T07:28:11;35.20;;;22.30;;
11078;SDS011;5592;49.234;7.268;2024-03-07T07:30:36;32.87;;;22.27;;
11078;SDS011;5592;49.234;7.268;2024-03-07T07:33:02;34.90;;;23.60;;
11078;SDS011;5592;49.234;7.268;2024-03-07T07:35:28;35.90;;;24.10;;
11078;SDS011;5592;49.234;7.268;2024-03-07T07:37:53;33.23;;;22.87;;
11078;SDS011;5592;49.234;7.268;2024-03-07T07:40:24;33.73;;;23.33;;
11078;SDS011;5592;49.234;7.268;2024-03-07T07:42:59;28.47;;;21.87;;
11078;SDS011;5592;49.234;7.268;2024-03-07T07:45:27;32.67;;;22.27;;
11078;SDS011;5592;49.234;7.268;2024-03-07T07:47:52;34.30;;;24.40;;
11078;SDS011;5592;49.234;7.268;2024-03-07T07:50:19;40.03;;;21.57;;
11078;SDS011;5592;49.234;7.268;2024-03-07T07:52:49;30.90;;;22.13;;
11078;SDS011;5592;49.234;7.268;2024-03-07T07:55:20;33.33;;;22.73;;
11078;SDS011;5592;49.234;7.268;2024-03-07T07:57:59;30.87;;;21.63;;
11078;SDS011;5592;49.234;7.268;2024-03-07T08:00:30;30.93;;;21.70;;
11078;SDS011;5592;49.234;7.268;2024-03-07T08:03:08;28.80;;;20.20;;
11078;SDS011;5592;49.234;7.268;2024-03-07T08:05:36;31.30;;;21.27;;
11078;SDS011;5592;49.234;7.268;2024-03-07T08:08:03;25.50;;;19.87;;
11078;SDS011;5592;49.234;7.268;2024-03-07T08:10:31;27.00;;;18.70;;
11078;SDS011;5592;49.234;7.268;2024-03-07T08:13:04;26.83;;;17.80;;
11078;SDS011;5592;49.234;7.268;2024-03-07T08:15:35;26.23;;;17.20;;
11078;SDS011;5592;49.234;7.268;2024-03-07T08:18:01;23.43;;;18.07;;
11078;SDS011;5592;49.234;7.268;2024-03-07T08:20:27;24.30;;;18.73;;
11078;SDS011;5592;49.234;7.268;2024-03-07T08:22:57;24.13;;;16.93;;
11078;SDS011;5592;49.234;7.268;2024-03-07T08:25:24;24.53;;;18.67;;
11078;SDS011;5592;49.234;7.268;2024-03-07T08:27:52;20.37;;;16.77;;
11078;SDS011;5592;49.234;7.268;2024-03-07T08:30:20;22.67;;;17.33;;
11078;SDS011;5592;49.234;7.268;2024-03-07T08:32:46;24.13;;;18.13;;
11078;SDS011;5592;49.234;7.268;2024-03-07T08:35:13;21.17;;;16.43;;
11078;SDS011;5592;49.234;7.268;2024-03-07T08:37:42;22.83;;;16.80;;
11078;SDS011;5592;49.234;7.268;2024-03-07T08:40:09;21.63;;;15.43;;
11078;SDS011;5592;49.234;7.268;2024-03-07T08:42:40;22.90;;;17.50;;
11078;SDS011;5592;49.234;7.268;2024-03-07T08:45:08;24.00;;;16.13;;
11078;SDS011;5592;49.234;7.268;2024-03-07T08:47:36;20.43;;;16.13;;
11078;SDS011;5592;49.234;7.268;2024-03-07T08:50:03;24.80;;;17.93;;
11078;SDS011;5592;49.234;7.268;2024-03-07T08:52:33;19.63;;;15.90;;
11078;SDS011;5592;49.234;7.268;2024-03-07T08:55:02;19.70;;;15.50;;
11078;SDS011;5592;49.234;7.268;2024-03-07T08:57:28;20.70;;;15.67;;
11078;SDS011;5592;49.234;7.268;2024-03-07T08:59:54;20.50;;;14.83;;
11078;SDS011;5592;49.234;7.268;2024-03-07T09:02:19;17.70;;;13.67;;
11078;SDS011;5592;49.234;7.268;2024-03-07T09:04:46;18.77;;;14.40;;
11078;SDS011;5592;49.234;7.268;2024-03-07T09:07:11;20.93;;;15.10;;
11078;SDS011;5592;49.234;7.268;2024-03-07T09:09:39;21.47;;;15.47;;
11078;SDS011;5592;49.234;7.268;2024-03-07T09:12:08;22.50;;;13.53;;
11078;SDS011;5592;49.234;7.268;2024-03-07T09:14:34;21.37;;;15.37;;
11078;SDS011;5592;49.234;7.268;2024-03-07T09:17:00;18.00;;;13.97;;
11078;SDS011;5592;49.234;7.268;2024-03-07T09:19:26;19.13;;;13.80;;
11078;SDS011;5592;49.234;7.268;2024-03-07T09:21:53;20.97;;;14.73;;
11078;SDS011;5592;49.234;7.268;2024-03-07T09:24:20;20.47;;;14.17;;
11078;SDS011;5592;49.234;7.268;2024-03-07T09:26:52;19.70;;;13.90;;
11078;SDS011;5592;49.234;7.268;2024-03-07T09:29:18;21.10;;;14.50;;
11078;SDS011;5592;49.234;7.268;2024-03-07T09:31:44;21.23;;;14.57;;
11078;SDS011;5592;49.234;7.268;2024-03-07T09:34:12;21.03;;;13.80;;
11078;SDS011;5592;49.234;7.268;2024-03-07T09:36:39;22.03;;;15.20;;
11078;SDS011;5592;49.234;7.268;2024-03-07T09:39:06;19.87;;;14.83;;
11078;SDS011;5592;49.234;7.268;2024-03-07T09:41:33;23.97;;;14.20;;
11078;SDS011;5592;49.234;7.268;2024-03-07T09:43:59;22.97;;;15.23;;
11078;SDS011;5592;49.234;7.268;2024-03-07T09:46:26;21.23;;;15.40;;
11078;SDS011;5592;49.234;7.268;2024-03-07T09:48:53;22.23;;;15.90;;
11078;SDS011;5592;49.234;7.268;2024-03-07T09:51:25;21.53;;;14.77;;
11078;SDS011;5592;49.234;7.268;2024-03-07T09:53:53;20.60;;;13.43;;
11078;SDS011;5592;49.234;7.268;2024-03-07T09:56:22;20.57;;;14.67;;
11078;SDS011;5592;49.234;7.268;2024-03-07T09:58:51;18.27;;;13.60;;
11078;SDS011;5592;49.234;7.268;2024-03-07T10:01:24;21.70;;;14.00;;
11078;SDS011;5592;49.234;7.268;2024-03-07T10:04:01;20.40;;;14.33;;
11078;SDS011;5592;49.234;7.268;2024-03-07T10:06:36;18.87;;;13.97;;
11078;SDS011;5592;49.234;7.268;2024-03-07T10:09:11;17.50;;;13.37;;
11078;SDS011;5592;49.234;7.268;2024-03-07T10:11:41;21.87;;;13.80;;
11078;SDS011;5592;49.234;7.268;2024-03-07T10:14:09;19.17;;;13.93;;
11078;SDS011;5592;49.234;7.268;2024-03-07T10:16:36;19.30;;;15.10;;
11078;SDS011;5592;49.234;7.268;2024-03-07T10:19:05;18.23;;;14.37;;
11078;SDS011;5592;49.234;7.268;2024-03-07T10:21:30;20.50;;;14.60;;
11078;SDS011;5592;49.234;7.268;2024-03-07T10:24:05;18.00;;;13.80;;
11078;SDS011;5592;49.234;7.268;2024-03-07T10:26:35;20.07;;;13.97;;
11078;SDS011;5592;49.234;7.268;2024-03-07T10:29:02;17.87;;;13.10;;
11078;SDS011;5592;49.234;7.268;2024-03-07T10:31:33;20.60;;;14.00;;
11078;SDS011;5592;49.234;7.268;2024-03-07T10:34:05;18.70;;;14.50;;
11078;SDS011;5592;49.234;7.268;2024-03-07T10:36:40;17.90;;;13.97;;
11078;SDS011;5592;49.234;7.268;2024-03-07T10:39:11;17.30;;;13.73;;
11078;SDS011;5592;49.234;7.268;2024-03-07T10:42:00;18.93;;;13.87;;
11078;SDS011;5592;49.234;7.268;2024-03-07T10:44:30;16.87;;;14.00;;
11078;SDS011;5592;49.234;7.268;2024-03-07T10:47:03;19.27;;;13.60;;
11078;SDS011;5592;49.234;7.268;2024-03-07T10:49:33;17.50;;;13.33;;
11078;SDS011;5592;49.234;7.268;2024-03-07T10:52:10;19.40;;;13.23;;
11078;SDS011;5592;49.234;7.268;2024-03-07T10:54:41;18.00;;;13.40;;
11078;SDS011;5592;49.234;7.268;2024-03-07T10:57:29;16.90;;;13.40;;
11078;SDS011;5592;49.234;7.268;2024-03-07T11:00:02;18.27;;;13.10;;
11078;SDS011;5592;49.234;7.268;2024-03-07T11:02:52;23.50;;;16.03;;
11078;SDS011;5592;49.234;7.268;2024-03-07T11:05:19;17.50;;;13.70;;
11078;SDS011;5592;49.234;7.268;2024-03-07T11:07:49;20.10;;;14.70;;
11078;SDS011;5592;49.234;7.268;2024-03-07T11:10:16;18.90;;;13.77;;
11078;SDS011;5592;49.234;7.268;2024-03-07T11:12:43;21.73;;;14.20;;
11078;SDS011;5592;49.234;7.268;2024-03-07T11:15:12;14.83;;;12.37;;
11078;SDS011;5592;49.234;7.268;2024-03-07T11:17:44;17.23;;;11.83;;
11078;SDS011;5592;49.234;7.268;2024-03-07T11:20:18;15.87;;;12.40;;
11078;SDS011;5592;49.234;7.268;2024-03-07T11:23:00;17.70;;;12.23;;
11078;SDS011;5592;49.234;7.268;2024-03-07T11:25:49;14.20;;;10.70;;
11078;SDS011;5592;49.234;7.268;2024-03-07T11:28:17;17.40;;;11.07;;
11078;SDS011;5592;49.234;7.268;2024-03-07T11:30:46;13.90;;;10.73;;
11078;SDS011;5592;49.234;7.268;2024-03-07T11:33:12;16.60;;;10.83;;
11078;SDS011;5592;49.234;7.268;2024-03-07T11:35:39;16.90;;;11.13;;
11078;SDS011;5592;49.234;7.268;2024-03-07T11:38:06;16.00;;;11.00;;
11078;SDS011;5592;49.234;7.268;2024-03-07T11:43:00;14.70;;;10.50;;
11078;SDS011;5592;49.234;7.268;2024-03-07T11:45:29;16.93;;;11.30;;
11078;SDS011;5592;49.234;7.268;2024-03-07T11:47:59;14.93;;;11.37;;
11078;SDS011;5592;49.234;7.268;2024-03-07T11:50:29;16.70;;;10.97;;
11078;SDS011;5592;49.234;7.268;2024-03-07T11:53:00;13.57;;;11.03;;
11078;SDS011;5592;49.234;7.268;2024-03-07T11:55:26;14.50;;;10.43;;
11078;SDS011;5592;49.234;7.268;2024-03-07T11:57:53;14.80;;;11.27;;
11078;SDS011;5592;49.234;7.268;2024-03-07T12:00:19;13.40;;;10.20;;
11078;SDS011;5592;49.234;7.268;2024-03-07T12:02:48;12.40;;;9.77;;
11078;SDS011;5592;49.234;7.268;2024-03-07T12:05:14;20.40;;;10.30;;
11078;SDS011;5592;49.234;7.268;2024-03-07T12:07:41;11.60;;;9.70;;
11078;SDS011;5592;49.234;7.268;2024-03-07T12:10:08;25.93;;;11.40;;
11078;SDS011;5592;49.234;7.268;2024-03-07T12:12:33;13.97;;;10.20;;
11078;SDS011;5592;49.234;7.268;2024-03-07T12:14:59;13.63;;;10.13;;
11078;SDS011;5592;49.234;7.268;2024-03-07T12:17:27;15.03;;;10.73;;
11078;SDS011;5592;49.234;7.268;2024-03-07T12:19:55;15.23;;;10.53;;
11078;SDS011;5592;49.234;7.268;2024-03-07T12:22:26;15.00;;;9.80;;
11078;SDS011;5592;49.234;7.268;2024-03-07T12:25:01;16.73;;;12.20;;
11078;SDS011;5592;49.234;7.268;2024-03-07T12:27:27;15.37;;;10.80;;
11078;SDS011;5592;49.234;7.268;2024-03-07T12:29:54;19.20;;;12.17;;
11078;SDS011;5592;49.234;7.268;2024-03-07T12:32:20;16.40;;;11.40;;
11078;SDS011;5592;49.234;7.268;2024-03-07T12:34:46;20.53;;;11.13;;
11078;SDS011;5592;49.234;7.268;2024-03-07T12:37:14;15.10;;;10.50;;
11078;SDS011;5592;49.234;7.268;2024-03-07T12:39:41;18.37;;;12.40;;
11078;SDS011;5592;49.234;7.268;2024-03-07T12:42:23;15.57;;;11.27;;
11078;SDS011;5592;49.234;7.268;2024-03-07T12:44:50;16.63;;;12.07;;
11078;SDS011;5592;49.234;7.268;2024-03-07T12:47:16;19.50;;;12.43;;
11078;SDS011;5592;49.234;7.268;2024-03-07T12:49:45;17.90;;;12.20;;
11078;SDS011;5592;49.234;7.268;2024-03-07T12:52:11;17.13;;;11.50;;
11078;SDS011;5592;49.234;7.268;2024-03-07T12:54:40;17.43;;;12.30;;
11078;SDS011;5592;49.234;7.268;2024-03-07T12:57:06;16.97;;;11.90;;
11078;SDS011;5592;49.234;7.268;2024-03-07T12:59:33;17.40;;;12.47;;
11078;SDS011;5592;49.234;7.268;2024-03-07T13:02:08;16.40;;;11.30;;
11078;SDS011;5592;49.234;7.268;2024-03-07T13:04:37;16.80;;;11.90;;
11078;SDS011;5592;49.234;7.268;2024-03-07T13:07:03;16.50;;;12.27;;
11078;SDS011;5592;49.234;7.268;2024-03-07T13:09:32;16.27;;;11.67;;
11078;SDS011;5592;49.234;7.268;2024-03-07T13:11:59;14.70;;;10.90;;
11078;SDS011;5592;49.234;7.268;2024-03-07T13:14:34;14.70;;;10.60;;
11078;SDS011;5592;49.234;7.268;2024-03-07T13:17:00;15.37;;;11.30;;
11078;SDS011;5592;49.234;7.268;2024-03-07T13:19:29;14.50;;;10.87;;
11078;SDS011;5592;49.234;7.268;2024-03-07T13:21:55;18.13;;;11.93;;
11078;SDS011;5592;49.234;7.268;2024-03-07T13:24:21;18.73;;;11.27;;
11078;SDS011;5592;49.234;7.268;2024-03-07T13:26:48;19.90;;;11.80;;
11078;SDS011;5592;49.234;7.268;2024-03-07T13:29:14;18.30;;;12.53;;
11078;SDS011;5592;49.234;7.268;2024-03-07T13:31:40;20.43;;;11.43;;
11078;SDS011;5592;49.234;7.268;2024-03-07T13:34:10;17.40;;;11.60;;
11078;SDS011;5592;49.234;7.268;2024-03-07T13:36:40;16.53;;;11.10;;
11078;SDS011;5592;49.234;7.268;2024-03-07T13:39:06;16.17;;;11.67;;
11078;SDS011;5592;49.234;7.268;2024-03-07T13:41:36;15.60;;;11.53;;
11078;SDS011;5592;49.234;7.268;2024-03-07T13:44:02;16.20;;;10.93;;
11078;SDS011;5592;49.234;7.268;2024-03-07T13:46:28;25.80;;;11.47;;
11078;SDS011;5592;49.234;7.268;2024-03-07T13:48:57;16.20;;;12.03;;
11078;SDS011;5592;49.234;7.268;2024-03-07T13:51:32;15.00;;;10.67;;
11078;SDS011;5592;49.234;7.268;2024-03-07T13:54:00;18.47;;;12.07;;
11078;SDS011;5592;49.234;7.268;2024-03-07T13:57:36;21.43;;;11.53;;
11078;SDS011;5592;49.234;7.268;2024-03-07T13:59:43;24.13;;;13.17;;
11078;SDS011;5592;49.234;7.268;2024-03-07T14:08:03;18.27;;;13.67;;
11078;SDS011;5592;49.234;7.268;2024-03-07T14:13:54;17.17;;;12.10;;
11078;SDS011;5592;49.234;7.268;2024-03-07T14:16:40;20.13;;;12.30;;
11078;SDS011;5592;49.234;7.268;2024-03-07T14:26:51;22.67;;;12.73;;
11078;SDS011;5592;49.234;7.268;2024-03-07T14:31:44;20.17;;;14.20;;
11078;SDS011;5592;49.234;7.268;2024-03-07T14:37:09;21.90;;;13.33;;
11078;SDS011;5592;49.234;7.268;2024-03-07T14:39:46;19.47;;;13.10;;
11078;SDS011;5592;49.234;7.268;2024-03-07T14:42:14;20.77;;;14.20;;
11078;SDS011;5592;49.234;7.268;2024-03-07T14:44:43;21.07;;;14.70;;
11078;SDS011;5592;49.234;7.268;2024-03-07T14:47:11;20.93;;;13.30;;
11078;SDS011;5592;49.234;7.268;2024-03-07T14:49:40;20.50;;;13.83;;
11078;SDS011;5592;49.234;7.268;2024-03-07T14:52:07;22.33;;;14.30;;
11078;SDS011;5592;49.234;7.268;2024-03-07T14:54:36;26.07;;;14.83;;
11078;SDS011;5592;49.234;7.268;2024-03-07T14:57:02;26.60;;;15.20;;
11078;SDS011;5592;49.234;7.268;2024-03-07T14:59:29;21.30;;;12.67;;
11078;SDS011;5592;49.234;7.268;2024-03-07T15:01:55;22.93;;;14.20;;
11078;SDS011;5592;49.234;7.268;2024-03-07T15:04:23;23.60;;;13.63;;
11078;SDS011;5592;49.234;7.268;2024-03-07T15:06:50;22.10;;;13.53;;